createdAt,value
2023-04-15T00:01:37.257Z,68.12
2023-04-15T00:04:04.728Z,68.92
2023-04-15T00:06:31.333Z,69.05
2023-04-15T00:08:57.906Z,68.61
2023-04-15T00:11:24.533Z,68.99
2023-04-15T00:13:51.167Z,68.63
2023-04-15T00:16:17.794Z,70.24
2023-04-15T00:18:44.276Z,69.61
2023-04-15T00:21:10.708Z,69.00
2023-04-15T00:23:37.132Z,68.77
2023-04-15T00:26:03.531Z,69.69
2023-04-15T00:28:31.008Z,70.65
2023-04-15T00:30:57.670Z,70.96
2023-04-15T00:33:24.096Z,68.51
2023-04-15T00:35:50.913Z,69.11
2023-04-15T00:38:17.716Z,67.65
2023-04-15T00:40:44.193Z,68.00
2023-04-15T00:43:10.630Z,69.13
2023-04-15T00:45:37.277Z,69.43
2023-04-15T00:48:05.029Z,68.66
2023-04-15T00:50:31.445Z,69.78
2023-04-15T00:52:57.796Z,69.31
2023-04-15T00:55:24.234Z,69.84
2023-04-15T00:57:50.756Z,70.57
2023-04-15T01:00:17.093Z,69.80
2023-04-15T01:02:43.748Z,71.39
2023-04-15T01:05:10.310Z,71.40
2023-04-15T01:07:36.873Z,70.75
2023-04-15T01:10:04.515Z,71.35
2023-04-15T01:12:33.049Z,72.03
2023-04-15T01:15:00.226Z,70.72
2023-04-15T01:17:26.774Z,71.54
2023-04-15T01:19:55.481Z,71.08
2023-04-15T01:22:22.393Z,71.58
2023-04-15T01:25:01.872Z,72.09
2023-04-15T01:27:28.305Z,72.68
2023-04-15T01:29:54.740Z,71.73
2023-04-15T01:32:21.371Z,72.74
2023-04-15T01:34:47.784Z,72.03
2023-04-15T01:37:14.269Z,72.02
2023-04-15T01:39:41.090Z,73.42
2023-04-15T01:42:07.552Z,72.07
2023-04-15T01:44:33.965Z,72.28
2023-04-15T01:47:00.653Z,72.15
2023-04-15T01:49:27.598Z,71.83
2023-04-15T01:51:54.233Z,73.09
2023-04-15T01:54:20.674Z,72.71
2023-04-15T01:56:47.261Z,72.78
2023-04-15T01:59:13.862Z,71.70
2023-04-15T02:01:40.932Z,72.22
2023-04-15T02:04:08.135Z,72.51
2023-04-15T02:06:34.689Z,72.77
2023-04-15T02:09:01.338Z,72.55
2023-04-15T02:11:28.197Z,72.10
2023-04-15T02:13:54.828Z,72.36
2023-04-15T02:16:22.000Z,73.30
2023-04-15T02:18:48.574Z,72.81
2023-04-15T02:21:15.048Z,73.50
2023-04-15T02:23:41.681Z,74.02
2023-04-15T02:26:08.219Z,73.52
2023-04-15T02:28:34.716Z,73.89
2023-04-15T02:31:02.226Z,73.31
2023-04-15T02:33:28.626Z,73.04
2023-04-15T02:35:55.028Z,73.57
2023-04-15T02:38:21.465Z,73.27
2023-04-15T02:40:49.649Z,74.20
2023-04-15T02:43:17.215Z,74.45
2023-04-15T02:45:44.109Z,75.57
2023-04-15T02:48:10.977Z,75.05
2023-04-15T02:50:39.885Z,74.48
2023-04-15T02:53:07.246Z,74.79
2023-04-15T02:55:33.668Z,76.09
2023-04-15T02:58:01.078Z,75.69
2023-04-15T03:00:28.285Z,77.10
2023-04-15T03:02:59.458Z,76.43
2023-04-15T03:05:26.208Z,76.45
2023-04-15T03:07:53.065Z,75.91
2023-04-15T03:10:20.141Z,76.78
2023-04-15T03:12:46.837Z,76.51
2023-04-15T03:15:13.675Z,76.32
2023-04-15T03:17:40.260Z,77.73
2023-04-15T03:20:07.264Z,77.04
2023-04-15T03:22:33.845Z,76.62
2023-04-15T03:25:00.400Z,77.01
2023-04-15T03:27:26.790Z,77.76
2023-04-15T03:29:53.209Z,77.25
2023-04-15T03:32:19.723Z,77.96
2023-04-15T03:34:46.213Z,77.19
2023-04-15T03:37:12.593Z,77.93
2023-04-15T03:39:39.316Z,78.44
2023-04-15T03:42:06.051Z,77.43
2023-04-15T03:44:32.804Z,77.17
2023-04-15T03:46:59.196Z,77.42
2023-04-15T03:49:25.604Z,78.13
2023-04-15T03:51:52.188Z,78.89
2023-04-15T03:54:18.598Z,78.91
2023-04-15T03:56:44.940Z,78.39
2023-04-15T03:59:11.459Z,79.09
2023-04-15T04:01:37.897Z,78.27
2023-04-15T04:04:04.441Z,79.05
2023-04-15T04:06:31.084Z,78.49
2023-04-15T04:08:57.445Z,79.55
2023-04-15T04:11:23.863Z,78.79
2023-04-15T04:13:50.232Z,78.84
2023-04-15T04:16:17.305Z,79.74
2023-04-15T04:18:43.817Z,79.89
2023-04-15T04:21:10.768Z,79.65
2023-04-15T04:23:37.285Z,79.28
2023-04-15T04:26:03.667Z,79.41
2023-04-15T04:28:30.163Z,80.38
2023-04-15T04:30:56.682Z,79.91
2023-04-15T04:33:23.158Z,79.54
2023-04-15T04:35:49.577Z,80.90
2023-04-15T04:38:15.929Z,80.91
2023-04-15T04:40:42.300Z,80.09
2023-04-15T04:43:09.406Z,81.41
2023-04-15T04:45:36.267Z,82.02
2023-04-15T04:48:06.574Z,81.27
2023-04-15T04:50:33.284Z,80.61
2023-04-15T04:52:59.916Z,81.03
2023-04-15T04:55:27.050Z,80.66
2023-04-15T04:57:53.454Z,81.22
2023-04-15T05:00:20.298Z,81.84
2023-04-15T05:02:46.857Z,81.23
2023-04-15T05:05:13.375Z,81.41
2023-04-15T05:07:39.885Z,82.10
2023-04-15T05:10:06.930Z,82.18
2023-04-15T05:12:33.389Z,82.01
2023-04-15T05:14:59.845Z,81.40
2023-04-15T05:17:26.288Z,82.34
2023-04-15T05:19:53.784Z,82.92
2023-04-15T05:22:20.316Z,82.87
2023-04-15T05:24:46.700Z,83.24
2023-04-15T05:27:13.096Z,83.92
2023-04-15T05:29:39.501Z,83.15
2023-04-15T05:32:06.553Z,82.84
2023-04-15T05:34:32.901Z,82.93
2023-04-15T05:36:59.279Z,83.11
2023-04-15T05:39:25.700Z,83.29
2023-04-15T05:41:52.190Z,83.15
2023-04-15T05:44:18.796Z,82.96
2023-04-15T05:46:45.232Z,83.79
2023-04-15T05:49:12.022Z,83.37
2023-04-15T05:51:38.469Z,82.98
2023-04-15T05:54:04.896Z,83.27
2023-04-15T05:56:31.623Z,83.13
2023-04-15T05:58:57.982Z,84.16
2023-04-15T06:01:25.310Z,83.35
2023-04-15T06:03:51.926Z,83.28
2023-04-15T06:06:18.754Z,83.75
2023-04-15T06:08:45.124Z,83.83
2023-04-15T06:11:11.643Z,83.26
2023-04-15T06:13:38.037Z,83.08
2023-04-15T06:16:04.764Z,84.41
2023-04-15T06:18:31.237Z,84.46
2023-04-15T06:20:57.837Z,84.05
2023-04-15T06:23:25.286Z,84.18
2023-04-15T06:25:52.791Z,84.14
2023-04-15T06:28:19.239Z,84.79
2023-04-15T06:30:45.723Z,84.79
2023-04-15T06:33:12.471Z,83.97
2023-04-15T06:35:39.332Z,83.78
2023-04-15T06:38:06.186Z,83.30
2023-04-15T06:40:32.622Z,83.36
2023-04-15T06:42:59.110Z,83.11
2023-04-15T06:45:25.607Z,83.06
2023-04-15T06:47:52.262Z,83.13
2023-04-15T06:50:18.719Z,82.34
2023-04-15T06:52:45.125Z,82.75
2023-04-15T06:55:11.588Z,83.10
2023-04-15T06:57:37.986Z,82.88
2023-04-15T07:00:05.686Z,83.07
2023-04-15T07:02:32.245Z,81.94
2023-04-15T07:04:58.817Z,82.78
2023-04-15T07:07:25.609Z,82.01
2023-04-15T07:09:53.716Z,81.51
2023-04-15T07:12:20.793Z,81.15
2023-04-15T07:14:47.438Z,80.50
2023-04-15T07:17:13.922Z,79.69
2023-04-15T07:19:40.552Z,79.60
2023-04-15T07:22:07.709Z,78.45
2023-04-15T07:24:34.170Z,78.41
2023-04-15T07:27:01.142Z,78.13
2023-04-15T07:29:27.924Z,78.39
2023-04-15T07:31:54.376Z,77.43
2023-04-15T07:34:20.958Z,78.44
2023-04-15T07:36:50.504Z,77.77
2023-04-15T07:39:17.155Z,77.72
2023-04-15T07:41:43.733Z,76.82
2023-04-15T07:44:10.413Z,76.62
2023-04-15T07:46:38.354Z,73.98
2023-04-15T07:49:05.140Z,73.50
2023-04-15T07:51:32.187Z,73.20
2023-04-15T07:53:58.855Z,72.71
2023-04-15T07:56:26.380Z,69.23
2023-04-15T07:58:53.136Z,69.33
2023-04-15T08:01:19.588Z,69.35
2023-04-15T08:03:46.322Z,68.45
2023-04-15T08:06:13.046Z,68.32
2023-04-15T08:08:39.493Z,68.46
2023-04-15T08:11:05.955Z,68.92
2023-04-15T08:13:32.333Z,68.30
2023-04-15T08:16:23.450Z,68.79
2023-04-15T08:18:52.106Z,66.89
2023-04-15T08:21:19.685Z,68.36
2023-04-15T08:23:47.495Z,66.37
2023-04-15T08:26:14.259Z,65.84
2023-04-15T08:28:41.814Z,64.07
2023-04-15T08:31:09.637Z,64.17
2023-04-15T08:33:36.267Z,64.37
2023-04-15T08:36:03.239Z,64.23
2023-04-15T08:38:29.630Z,65.21
2023-04-15T08:40:58.338Z,62.33
2023-04-15T08:43:28.599Z,62.50
2023-04-15T08:45:55.746Z,63.29
2023-04-15T08:48:24.516Z,63.89
2023-04-15T08:50:51.826Z,64.54
2023-04-15T08:53:18.236Z,63.83
2023-04-15T08:55:46.327Z,64.29
2023-04-15T08:58:14.220Z,64.10
2023-04-15T09:00:41.219Z,63.85
2023-04-15T09:03:09.273Z,63.68
2023-04-15T09:05:37.249Z,63.78
2023-04-15T09:08:05.286Z,64.61
2023-04-15T09:10:33.661Z,62.86
2023-04-15T09:13:02.850Z,64.56
2023-04-15T09:15:30.389Z,62.65
2023-04-15T09:17:57.862Z,63.85
2023-04-15T09:20:24.578Z,63.44
2023-04-15T09:22:52.383Z,62.52
2023-04-15T09:25:21.836Z,60.74
2023-04-15T09:27:53.128Z,60.88
2023-04-15T09:30:19.573Z,61.93
2023-04-15T09:32:53.918Z,61.53
2023-04-15T09:35:22.318Z,62.40
2023-04-15T09:37:53.221Z,63.28
2023-04-15T09:40:33.861Z,61.84
2023-04-15T09:43:01.949Z,61.83
2023-04-15T09:45:29.673Z,63.21
2023-04-15T09:47:59.145Z,62.31
2023-04-15T09:50:29.518Z,62.78
2023-04-15T09:52:56.351Z,62.33
2023-04-15T09:55:23.112Z,62.42
2023-04-15T09:57:49.598Z,62.26
2023-04-15T10:00:16.349Z,61.60
2023-04-15T10:02:43.322Z,60.89
2023-04-15T10:05:18.034Z,60.55
2023-04-15T10:07:45.796Z,60.91
2023-04-15T10:10:13.405Z,61.58
2023-04-15T10:12:42.054Z,61.32
2023-04-15T10:15:14.873Z,61.09
2023-04-15T10:17:44.388Z,59.27
2023-04-15T10:20:12.903Z,58.44
2023-04-15T10:22:41.188Z,58.26
2023-04-15T10:25:08.942Z,58.88
2023-04-15T10:27:36.720Z,59.37
2023-04-15T10:30:03.777Z,59.84
2023-04-15T10:32:30.724Z,61.04
2023-04-15T10:34:58.125Z,59.50
2023-04-15T10:37:38.201Z,59.77
2023-04-15T10:40:24.455Z,59.38
2023-04-15T10:42:51.265Z,59.04
2023-04-15T10:45:19.284Z,59.67
2023-04-15T10:47:45.918Z,57.59
2023-04-15T10:50:12.621Z,57.88
2023-04-15T10:52:42.554Z,57.81
2023-04-15T10:55:22.538Z,58.69
2023-04-15T10:57:58.636Z,59.15
2023-04-15T11:00:26.837Z,58.77
2023-04-15T11:03:15.203Z,58.73
2023-04-15T11:05:41.746Z,57.67
2023-04-15T11:08:09.202Z,57.48
2023-04-15T11:10:35.801Z,57.54
2023-04-15T11:13:16.542Z,56.32
2023-04-15T11:15:47.934Z,56.43
2023-04-15T11:18:28.676Z,56.38
2023-04-15T11:20:59.950Z,56.11
2023-04-15T11:23:32.108Z,57.07
2023-04-15T11:26:00.014Z,57.09
2023-04-15T11:28:28.122Z,57.21
2023-04-15T11:30:55.731Z,56.42
2023-04-15T11:33:23.717Z,56.32
2023-04-15T11:35:51.959Z,57.07
2023-04-15T11:38:18.906Z,57.62
2023-04-15T11:40:47.237Z,56.76
2023-04-15T11:43:16.571Z,56.69
2023-04-15T11:45:51.481Z,58.33
2023-04-15T11:48:18.676Z,55.55
2023-04-15T11:50:45.556Z,54.70
2023-04-15T11:53:13.621Z,55.35
2023-04-15T11:55:44.694Z,55.62
2023-04-15T11:58:18.652Z,54.65
2023-04-15T12:00:57.062Z,54.79
2023-04-15T12:03:28.330Z,55.49
2023-04-15T12:06:11.546Z,55.34
2023-04-15T12:08:58.337Z,56.21
2023-04-15T12:11:28.526Z,55.28
2023-04-15T12:14:05.696Z,54.92
2023-04-15T12:16:48.266Z,54.77
2023-04-15T12:19:36.002Z,55.39
2023-04-15T12:22:05.276Z,55.34
2023-04-15T12:24:33.563Z,55.46
2023-04-15T12:27:08.300Z,55.60
2023-04-15T12:29:36.545Z,54.85
2023-04-15T12:32:13.834Z,56.04
2023-04-15T12:34:49.548Z,56.65
2023-04-15T12:37:16.279Z,56.17
2023-04-15T12:39:44.792Z,57.26
2023-04-15T12:42:12.197Z,58.02
2023-04-15T12:44:39.856Z,58.16
2023-04-15T12:47:07.744Z,59.13
2023-04-15T12:49:34.588Z,58.91
2023-04-15T12:52:02.417Z,59.45
2023-04-15T12:54:30.204Z,60.10
2023-04-15T12:56:57.926Z,59.46
2023-04-15T12:59:24.532Z,60.03
2023-04-15T13:01:52.429Z,59.62
2023-04-15T13:04:20.550Z,59.77
2023-04-15T13:06:47.280Z,60.42
2023-04-15T13:09:13.917Z,59.60
2023-04-15T13:11:40.775Z,60.56
2023-04-15T13:14:08.879Z,62.20
2023-04-15T13:16:36.003Z,62.78
2023-04-15T13:19:03.499Z,64.25
2023-04-15T13:21:32.200Z,63.06
2023-04-15T13:23:59.315Z,64.64
2023-04-15T13:26:25.793Z,64.54
2023-04-15T13:28:52.144Z,65.35
2023-04-15T13:31:18.557Z,64.95
2023-04-15T13:33:45.106Z,64.53
2023-04-15T13:36:11.531Z,65.37
2023-04-15T13:38:37.937Z,66.39
2023-04-15T13:41:04.403Z,65.16
2023-04-15T13:43:31.719Z,66.87
2023-04-15T13:45:58.249Z,66.24
2023-04-15T13:48:24.792Z,66.63
2023-04-15T13:50:51.152Z,66.70
2023-04-15T13:53:17.658Z,66.13
2023-04-15T13:55:44.222Z,66.85
2023-04-15T13:58:11.324Z,66.27
2023-04-15T14:00:37.793Z,67.30
2023-04-15T14:03:04.751Z,66.11
2023-04-15T14:05:32.316Z,66.92
2023-04-15T14:07:59.559Z,66.95
2023-04-15T14:10:25.984Z,65.45
2023-04-15T14:12:52.355Z,65.89
2023-04-15T14:15:19.206Z,66.80
2023-04-15T14:17:45.904Z,66.84
2023-04-15T14:20:13.538Z,67.22
2023-04-15T14:22:41.093Z,67.88
2023-04-15T14:25:07.890Z,68.52
2023-04-15T14:27:34.384Z,69.52
2023-04-15T14:30:00.899Z,70.04
2023-04-15T14:32:27.411Z,71.31
2023-04-15T14:34:53.834Z,71.66
2023-04-15T14:37:20.448Z,72.75
2023-04-15T14:39:46.838Z,71.52
2023-04-15T14:42:13.188Z,71.20
2023-04-15T14:44:39.639Z,70.68
2023-04-15T14:47:06.047Z,70.24
2023-04-15T14:49:32.492Z,70.14
2023-04-15T14:51:58.907Z,69.39
2023-04-15T14:54:25.553Z,69.85
2023-04-15T14:56:52.164Z,68.68
2023-04-15T14:59:18.638Z,69.63
2023-04-15T15:01:45.411Z,70.10
2023-04-15T15:04:12.933Z,70.74
2023-04-15T15:06:40.116Z,71.27
2023-04-15T15:09:06.863Z,71.27
2023-04-15T15:11:33.560Z,71.10
2023-04-15T15:14:00.124Z,71.00
2023-04-15T15:16:28.292Z,70.57
2023-04-15T15:18:55.064Z,71.89
2023-04-15T15:21:21.517Z,71.55
2023-04-15T15:23:48.481Z,71.76
2023-04-15T15:26:15.356Z,73.00
2023-04-15T15:28:42.222Z,71.93
2023-04-15T15:31:08.789Z,72.23
2023-04-15T15:33:35.297Z,73.93
2023-04-15T15:36:02.119Z,73.11
2023-04-15T15:38:28.510Z,73.10
2023-04-15T15:40:54.975Z,73.65
2023-04-15T15:43:21.356Z,74.34
2023-04-15T15:45:51.473Z,74.24
2023-04-15T15:48:18.468Z,75.38
2023-04-15T15:50:45.448Z,75.21
2023-04-15T15:53:12.349Z,75.34
2023-04-15T15:55:38.778Z,75.89
2023-04-15T15:58:05.163Z,74.80
2023-04-15T16:00:31.663Z,74.88
2023-04-15T16:05:27.557Z,76.08
2023-04-15T16:07:54.010Z,75.90
2023-04-15T16:10:20.524Z,75.54
2023-04-15T16:12:47.036Z,76.62
2023-04-15T16:15:13.712Z,76.65
2023-04-15T16:17:40.327Z,77.23
2023-04-15T16:20:07.415Z,77.10
2023-04-15T16:22:37.188Z,77.45
2023-04-15T16:25:03.868Z,77.11
2023-04-15T16:27:30.293Z,77.83
2023-04-15T16:29:56.769Z,76.84
2023-04-15T16:32:23.274Z,77.09
2023-04-15T16:34:49.748Z,76.95
2023-04-15T16:37:16.317Z,77.87
2023-04-15T16:39:42.816Z,78.35
2023-04-15T16:42:10.083Z,78.53
2023-04-15T16:44:36.546Z,77.87
2023-04-15T16:47:03.087Z,79.41
2023-04-15T16:49:29.840Z,77.52
2023-04-15T16:51:57.062Z,77.74
2023-04-15T16:54:23.585Z,77.51
2023-04-15T16:56:50.011Z,78.46
2023-04-15T16:59:16.427Z,77.95
2023-04-15T17:01:42.926Z,78.88
2023-04-15T17:04:09.469Z,78.89
2023-04-15T17:06:36.195Z,78.27
2023-04-15T17:09:02.730Z,78.95
2023-04-15T17:11:29.214Z,79.53
2023-04-15T17:13:55.714Z,78.63
2023-04-15T17:16:22.201Z,78.60
2023-04-15T17:18:50.329Z,78.93
2023-04-15T17:21:17.453Z,78.37
2023-04-15T17:23:43.926Z,77.95
2023-04-15T17:26:10.670Z,78.65
2023-04-15T17:28:37.155Z,78.66
2023-04-15T17:31:04.343Z,78.35
2023-04-15T17:33:57.516Z,79.61
2023-04-15T17:36:17.266Z,79.31
2023-04-15T17:38:43.673Z,78.92
2023-04-15T17:41:10.082Z,79.26
2023-04-15T17:43:36.520Z,80.53
2023-04-15T17:46:03.066Z,79.96
2023-04-15T17:48:29.543Z,79.31
2023-04-15T17:50:55.959Z,79.54
2023-04-15T17:53:22.328Z,79.39
2023-04-15T17:55:50.239Z,78.97
2023-04-15T17:58:16.660Z,80.04
2023-04-15T18:00:43.086Z,80.16
2023-04-15T18:03:09.663Z,81.07
2023-04-15T18:05:36.304Z,80.11
2023-04-15T18:08:02.753Z,80.08
2023-04-15T18:10:29.352Z,80.42
2023-04-15T18:12:55.945Z,80.36
2023-04-15T18:15:22.374Z,80.33
2023-04-15T18:17:48.800Z,80.12
2023-04-15T18:20:15.539Z,79.64
2023-04-15T18:22:42.793Z,78.89
2023-04-15T18:25:09.479Z,79.33
2023-04-15T18:27:38.937Z,79.64
2023-04-15T18:30:08.031Z,78.94
2023-04-15T18:32:34.604Z,79.68
2023-04-15T18:35:01.436Z,79.79
2023-04-15T18:37:30.894Z,80.75
2023-04-15T18:39:58.220Z,80.33
2023-04-15T18:42:25.582Z,80.83
2023-04-15T18:44:52.968Z,81.66
2023-04-15T18:47:19.670Z,80.79
2023-04-15T18:49:46.158Z,81.49
2023-04-15T18:52:12.639Z,81.45
2023-04-15T18:54:39.056Z,81.95
2023-04-15T18:57:06.412Z,83.10
2023-04-15T18:59:33.633Z,82.25
2023-04-15T19:02:01.101Z,83.53
2023-04-15T19:04:30.593Z,84.45
2023-04-15T19:06:57.280Z,83.99
2023-04-15T19:09:23.685Z,84.31
2023-04-15T19:11:50.298Z,85.02
2023-04-15T19:14:17.738Z,85.46
2023-04-15T19:16:44.341Z,84.95
2023-04-15T19:19:14.310Z,85.10
2023-04-15T19:21:41.217Z,86.05
2023-04-15T19:24:07.646Z,85.63
2023-04-15T19:26:34.328Z,86.36
2023-04-15T19:29:00.967Z,86.22
2023-04-15T19:31:27.334Z,86.74
2023-04-15T19:33:53.729Z,87.23
2023-04-15T19:36:20.274Z,86.88
2023-04-15T19:38:46.657Z,86.67
2023-04-15T19:41:13.068Z,87.43
2023-04-15T19:43:39.499Z,87.75
2023-04-15T19:46:06.995Z,87.28
2023-04-15T19:48:33.493Z,87.62
2023-04-15T19:51:00.562Z,87.74
2023-04-15T19:53:26.965Z,88.14
2023-04-15T19:55:53.380Z,87.64
2023-04-15T19:58:19.810Z,88.78
2023-04-15T20:00:46.303Z,87.56
2023-04-15T20:03:12.873Z,87.88
2023-04-15T20:05:39.337Z,87.47
2023-04-15T20:08:05.804Z,88.69
2023-04-15T20:10:32.259Z,88.06
2023-04-15T20:12:58.722Z,88.10
2023-04-15T20:15:25.206Z,88.46
2023-04-15T20:17:51.703Z,88.35
2023-04-15T20:20:18.508Z,87.79
2023-04-15T20:22:45.013Z,87.95
2023-04-15T20:25:11.470Z,88.36
2023-04-15T20:27:37.866Z,88.66
2023-04-15T20:30:04.954Z,87.69
2023-04-15T20:32:36.005Z,88.39
2023-04-15T20:35:04.246Z,88.21
2023-04-15T20:37:33.312Z,87.89
2023-04-15T20:40:01.009Z,88.56
2023-04-15T20:42:27.474Z,87.99
2023-04-15T20:44:53.869Z,89.14
2023-04-15T20:47:20.405Z,88.23
2023-04-15T20:49:47.361Z,89.62
2023-04-15T20:52:13.845Z,88.65
2023-04-15T20:54:40.322Z,89.14
2023-04-15T20:57:06.791Z,89.43
2023-04-15T20:59:34.811Z,89.35
2023-04-15T21:02:01.776Z,89.41
2023-04-15T21:04:28.289Z,89.70
2023-04-15T21:06:54.787Z,90.07
2023-04-15T21:09:21.188Z,90.01
2023-04-15T21:14:18.158Z,90.46
2023-04-15T21:16:44.685Z,89.76
2023-04-15T21:19:11.214Z,90.20
2023-04-15T21:21:37.692Z,89.64
2023-04-15T21:24:04.247Z,90.08
2023-04-15T21:26:30.703Z,90.47
2023-04-15T21:28:57.104Z,90.66
2023-04-15T21:31:23.571Z,91.17
2023-04-15T21:33:50.152Z,91.83
2023-04-15T21:36:16.581Z,92.62
2023-04-15T21:38:42.954Z,92.31
2023-04-15T21:41:10.234Z,92.62
2023-04-15T21:43:37.056Z,92.15
2023-04-15T21:46:23.090Z,93.19
2023-04-15T21:48:50.687Z,93.56
2023-04-15T21:51:17.182Z,93.30
2023-04-15T21:53:43.643Z,92.74
2023-04-15T21:56:10.233Z,93.40
2023-04-15T21:58:36.710Z,93.95
2023-04-15T22:01:04.541Z,93.69
2023-04-15T22:03:34.047Z,93.75
2023-04-15T22:06:02.318Z,94.11
2023-04-15T22:08:29.028Z,94.13
2023-04-15T22:10:55.530Z,94.27
2023-04-15T22:13:21.922Z,94.53
2023-04-15T22:15:48.298Z,94.83
2023-04-15T22:18:14.861Z,94.80
2023-04-15T22:20:41.469Z,94.48
2023-04-15T22:23:08.886Z,94.75
2023-04-15T22:25:37.154Z,94.50
2023-04-15T22:28:08.221Z,94.89
2023-04-15T22:30:41.838Z,95.83
2023-04-15T22:33:09.681Z,95.75
2023-04-15T22:35:37.294Z,96.23
2023-04-15T22:38:04.741Z,96.30
2023-04-15T22:40:31.272Z,96.34
2023-04-15T22:42:57.690Z,96.72
2023-04-15T22:45:24.111Z,96.60
2023-04-15T22:47:50.598Z,97.36
2023-04-15T22:50:17.140Z,96.88
2023-04-15T22:52:46.048Z,96.67
2023-04-15T22:55:13.115Z,96.92
2023-04-15T22:57:39.577Z,97.30
2023-04-15T23:00:07.374Z,97.11
2023-04-15T23:02:34.750Z,97.94
2023-04-15T23:05:01.577Z,97.55
2023-04-15T23:07:32.635Z,97.25
2023-04-15T23:10:01.009Z,97.49
2023-04-15T23:12:27.919Z,97.73
2023-04-15T23:14:54.303Z,97.91
2023-04-15T23:17:20.722Z,98.07
2023-04-15T23:19:47.141Z,98.74
2023-04-15T23:22:13.688Z,98.40
2023-04-15T23:24:40.082Z,99.11
2023-04-15T23:27:06.495Z,99.04
2023-04-15T23:29:33.012Z,99.31
2023-04-15T23:31:59.478Z,99.69
2023-04-15T23:34:26.213Z,99.44
2023-04-15T23:36:52.573Z,99.46
2023-04-15T23:39:18.949Z,99.80
2023-04-15T23:41:45.517Z,99.96
2023-04-15T23:44:11.872Z,100.00
2023-04-15T23:46:38.267Z,100.00
2023-04-15T23:49:04.727Z,100.00
2023-04-15T23:51:31.182Z,100.00
2023-04-15T23:53:57.638Z,100.00
2023-04-15T23:56:24.086Z,100.00
2023-04-15T23:58:50.617Z,100.00
